Terminal Aerodrome Forecast
Issued by NWS

Home | Current Version | Previous Version | Text Only | Print | Product List | Glossary On
Versions: 1 2 3 4 5 6 7 8 9 10 11 12 13 14 15 16 17 18 19 20 21 22 23 24 25 26 27 28 29
000
FTUS44 KSJT 050400 AAC
TAFSOA
TAF AMD
KSOA 050422Z 0504/0524 02020G30KT P6SM -FZRA OVC012
      TEMPO 0504/0507 5SM -FZRA BR OVC007
     FM050700 02021G31KT 6SM -FZRAPL BR OVC006
     FM051500 02015G22KT P6SM SCT100 BKN250=

USA.gov is the U.S. government's official web portal to all federal, state and local government web resources and services.